Time;durP1;ratioP1;P1;durP2;ratioP2;P2;SDS_P1;SDS_P2;PMS_P1;PMS_P2;Temp;Humidity;BMP_temperature;BMP_pressure;BME280_temperature;BME280_humidity;BME280_pressure;Samples;Min_cycle;Max_cycle;Signal;HPM_P1;HPM_P2
2022/12/29 00:05:08;;;;;;;5.32;2.25;;;;;;;9.23;100.00;99776.47;20773517;28;20200;-71
2022/12/29 00:35:49;;;;;;;6.28;2.38;;;;;;;9.75;100.00;99771.00;20788592;28;20053;-71
2022/12/29 00:45:50;;;;;;;6.45;2.00;;;;;;;10.28;100.00;99773.28;20787077;28;20046;-72
2022/12/29 00:55:51;;;;;;;4.82;2.15;;;;;;;10.35;100.00;99777.50;20787711;28;20050;-76
2022/12/29 01:05:53;;;;;;;5.30;1.83;;;;;;;10.39;100.00;99779.09;20787585;28;20057;-74
2022/12/29 01:15:54;;;;;;;6.72;1.77;;;;;;;10.49;100.00;99780.63;20790579;28;20057;-71
2022/12/29 01:25:55;;;;;;;5.40;2.72;;;;;;;10.62;100.00;99767.22;20784868;28;20053;-70
2022/12/29 01:35:57;;;;;;;6.68;1.83;;;;;;;10.64;100.00;99774.13;20783661;28;20578;-73
2022/12/29 01:45:58;;;;;;;4.72;1.75;;;;;;;10.91;100.00;99759.44;20782812;28;20057;-72
2022/12/29 01:55:59;;;;;;;8.13;1.48;;;;;;;10.83;100.00;99758.81;20782185;28;20132;-71
2022/12/29 02:06:01;;;;;;;5.30;1.63;;;;;;;10.91;100.00;99743.72;20780958;28;20414;-71
2022/12/29 02:16:02;;;;;;;4.45;1.55;;;;;;;10.91;100.00;99743.72;20780672;28;20064;-72
2022/12/29 02:26:03;;;;;;;5.35;1.40;;;;;;;10.97;100.00;99751.41;20780728;28;20067;-77
2022/12/29 02:36:05;;;;;;;4.57;1.67;;;;;;;10.85;100.00;99741.28;20780039;28;20050;-71
2022/12/29 02:46:07;;;;;;;5.55;1.38;;;;;;;10.65;100.00;99722.63;20778949;28;20055;-71
2022/12/29 02:56:08;;;;;;;3.70;1.35;;;;;;;10.75;100.00;99708.38;20777035;28;20145;-70
2022/12/29 03:06:10;;;;;;;5.03;1.17;;;;;;;10.81;100.00;99696.88;20777202;28;20057;-71
2022/12/29 03:16:11;;;;;;;4.18;1.20;;;;;;;10.92;100.00;99679.97;20777013;28;20056;-70
2022/12/29 03:26:13;;;;;;;3.53;1.10;;;;;;;11.00;100.00;99671.88;20778500;28;20061;-70
2022/12/29 03:36:14;;;;;;;2.97;1.05;;;;;;;10.84;100.00;99653.13;20774787;28;20061;-72
2022/12/29 03:46:15;;;;;;;3.17;0.80;;;;;;;10.77;100.00;99639.34;20773092;28;20447;-70
2022/12/29 03:56:18;;;;;;;1.70;0.80;;;;;;;10.78;100.00;99628.00;20774435;28;20061;-71
2022/12/29 04:06:19;;;;;;;5.03;1.08;;;;;;;10.74;100.00;99628.13;20773069;28;20056;-70
2022/12/29 04:16:21;;;;;;;4.30;1.13;;;;;;;10.83;100.00;99637.44;20773519;28;20113;-71
2022/12/29 04:26:22;;;;;;;3.88;1.65;;;;;;;10.89;100.00;99625.06;20776984;28;20081;-75
2022/12/29 04:36:23;;;;;;;2.92;1.17;;;;;;;10.84;100.00;99616.47;20774175;28;20104;-72
2022/12/29 04:46:30;;;;;;;3.10;1.13;;;;;;;10.95;100.00;99624.00;20771939;28;20061;-73
2022/12/29 04:56:31;;;;;;;3.95;1.30;;;;;;;11.05;100.00;99631.53;20776470;28;20056;-72
2022/12/29 05:06:32;;;;;;;4.40;1.10;;;;;;;11.07;100.00;99628.91;20785872;28;20465;-72
2022/12/29 05:16:34;;;;;;;5.53;1.23;;;;;;;10.89;100.00;99619.81;20786117;28;20524;-71
2022/12/29 05:37:14;;;;;;;3.53;1.67;;;;;;;10.66;100.00;99609.16;20748098;28;20076;-81
2022/12/29 05:47:15;;;;;;;4.55;1.83;;;;;;;10.72;100.00;99606.34;20713576;28;20057;-81
2022/12/29 05:57:17;;;;;;;4.85;1.80;;;;;;;10.73;100.00;99606.31;20749839;28;20049;-80
2022/12/29 06:07:19;;;;;;;6.70;1.88;;;;;;;10.88;100.00;99615.50;20753825;23;20079;-72
2022/12/29 06:17:20;;;;;;;6.53;2.20;;;;;;;10.81;100.00;99616.56;20782960;28;20456;-72
2022/12/29 06:27:21;;;;;;;5.22;2.13;;;;;;;10.86;100.00;99609.41;20780372;28;20046;-71
2022/12/29 06:37:22;;;;;;;5.38;2.20;;;;;;;10.87;100.00;99595.41;20779246;28;20056;-74
2022/12/29 06:47:23;;;;;;;6.97;2.33;;;;;;;10.86;100.00;99583.22;20777234;28;20053;-74
2022/12/29 06:57:26;;;;;;;6.30;1.83;;;;;;;10.73;100.00;99587.09;20782600;28;20046;-76
2022/12/29 07:07:27;;;;;;;5.00;1.85;;;;;;;10.73;100.00;99598.47;20776780;28;20621;-75
2022/12/29 07:17:28;;;;;;;5.28;2.00;;;;;;;10.67;100.00;99600.38;20778668;28;20414;-76
2022/12/29 07:27:30;;;;;;;6.28;2.13;;;;;;;10.58;100.00;99598.88;20779653;28;20284;-76
2022/12/29 07:37:31;;;;;;;8.88;2.28;;;;;;;10.66;100.00;99601.28;20787852;28;20042;-76
2022/12/29 07:47:32;;;;;;;4.30;1.83;;;;;;;10.62;100.00;99620.59;20775071;28;20560;-75
2022/12/29 07:57:34;;;;;;;4.75;2.10;;;;;;;10.72;100.00;99627.28;20774031;28;20049;-76
2022/12/29 08:07:35;;;;;;;13.30;5.80;;;;;;;10.96;100.00;99647.53;20781907;28;20081;-75
2022/12/29 08:17:36;;;;;;;6.80;2.50;;;;;;;11.08;100.00;99645.47;20776072;28;20095;-75
2022/12/29 08:27:37;;;;;;;6.75;2.70;;;;;;;11.16;100.00;99656.56;20770934;28;20445;-75
2022/12/29 08:37:39;;;;;;;6.90;2.38;;;;;;;11.54;100.00;99658.00;20790695;28;20166;-75
2022/12/29 08:47:40;;;;;;;8.63;2.60;;;;;;;11.58;100.00;99677.97;20790730;28;20054;-75
2022/12/29 08:57:42;;;;;;;7.63;2.53;;;;;;;11.48;100.00;99677.41;20790310;28;20096;-75
2022/12/29 09:07:43;;;;;;;8.52;2.20;;;;;;;11.74;100.00;99686.25;20787420;28;20049;-76
2022/12/29 09:17:45;;;;;;;9.68;2.90;;;;;;;11.68;100.00;99710.88;20789800;28;20053;-75
2022/12/29 09:27:47;;;;;;;7.15;2.58;;;;;;;11.50;100.00;99717.56;20783740;28;20061;-74
2022/12/29 09:37:49;;;;;;;7.03;2.40;;;;;;;11.43;100.00;99721.25;20783443;28;20140;-73
2022/12/29 09:47:50;;;;;;;10.80;4.13;;;;;;;11.41;100.00;99723.06;20783808;28;20555;-74
2022/12/29 09:57:51;;;;;;;12.35;4.50;;;;;;;11.49;100.00;99734.16;20782693;28;20061;-74
2022/12/29 10:07:52;;;;;;;7.85;3.85;;;;;;;11.86;100.00;99740.94;20781340;28;20128;-74
2022/12/29 10:17:54;;;;;;;7.45;2.28;;;;;;;12.09;100.00;99736.75;20785085;28;20045;-74
2022/12/29 10:27:55;;;;;;;4.55;1.30;;;;;;;11.99;100.00;99736.19;20775783;28;20073;-74
2022/12/29 10:37:56;;;;;;;4.95;1.30;;;;;;;11.82;100.00;99753.28;20780450;28;20465;-74
2022/12/29 10:47:57;;;;;;;4.63;1.70;;;;;;;11.49;100.00;99744.66;20779161;28;20046;-75
2022/12/29 10:57:59;;;;;;;4.63;1.92;;;;;;;11.61;100.00;99748.69;20778005;28;20057;-74
2022/12/29 11:08:00;;;;;;;7.70;2.47;;;;;;;11.84;100.00;99748.03;20777990;28;20481;-75
2022/12/29 11:18:01;;;;;;;4.95;1.80;;;;;;;12.13;100.00;99748.84;20780647;28;20053;-75
2022/12/29 11:28:03;;;;;;;7.78;2.38;;;;;;;12.44;100.00;99746.91;20775284;28;20045;-75
2022/12/29 11:38:05;;;;;;;6.38;2.42;;;;;;;12.52;100.00;99762.41;20776813;28;20049;-75
2022/12/29 11:48:07;;;;;;;4.15;1.58;;;;;;;12.70;100.00;99732.06;20774816;28;20053;-75
2022/12/29 11:58:09;;;;;;;4.47;1.50;;;;;;;12.82;100.00;99750.00;20775141;28;20135;-76
2022/12/29 12:08:10;;;;;;;4.35;1.27;;;;;;;12.89;100.00;99725.22;20783202;28;20045;-75
2022/12/29 12:18:17;;;;;;;4.28;1.65;;;;;;;13.00;100.00;99712.53;20792383;28;20050;-75
2022/12/29 12:28:18;;;;;;;4.15;1.38;;;;;;;12.89;100.00;99711.22;20788601;28;20108;-76
2022/12/29 12:38:20;;;;;;;4.20;1.40;;;;;;;13.03;100.00;99728.22;20789216;28;20271;-76
2022/12/29 12:48:21;;;;;;;4.90;1.15;;;;;;;12.93;100.00;99707.56;20810397;28;20443;-75
2022/12/29 12:58:24;;;;;;;3.15;1.00;;;;;;;12.68;100.00;99710.22;20802422;28;20107;-75
2022/12/29 13:08:25;;;;;;;5.07;2.08;;;;;;;12.59;100.00;99701.75;20786570;28;20100;-76
2022/12/29 13:18:26;;;;;;;2.55;1.00;;;;;;;12.61;100.00;99696.47;20787656;28;20076;-75
2022/12/29 13:28:28;;;;;;;4.75;1.40;;;;;;;12.61;100.00;99714.84;20784755;28;20092;-76
2022/12/29 13:38:29;;;;;;;4.47;1.60;;;;;;;12.53;100.00;99717.72;20782450;28;20054;-76
2022/12/29 13:48:30;;;;;;;7.20;1.30;;;;;;;12.33;100.00;99702.66;20784269;28;20061;-76
2022/12/29 13:58:32;;;;;;;3.30;1.17;;;;;;;12.13;100.00;99726.09;20783687;28;20057;-76
2022/12/29 14:08:33;;;;;;;2.53;1.10;;;;;;;11.86;100.00;99745.34;20782448;28;20050;-76
2022/12/29 14:18:34;;;;;;;7.70;2.92;;;;;;;11.41;100.00;99770.25;20784671;28;20100;-76
2022/12/29 14:28:35;;;;;;;3.47;1.05;;;;;;;10.98;100.00;99771.47;20780111;28;20107;-75
2022/12/29 14:38:37;;;;;;;3.78;1.10;;;;;;;10.90;100.00;99773.44;20784307;28;20073;-74
2022/12/29 14:48:38;;;;;;;3.67;1.00;;;;;;;10.65;100.00;99809.03;20780311;28;20103;-74
2022/12/29 14:58:39;;;;;;;3.88;1.20;;;;;;;10.60;100.00;99780.34;20778816;28;20199;-74
2022/12/29 15:08:40;;;;;;;3.78;1.20;;;;;;;10.45;100.00;99781.59;20778521;28;20174;-75
2022/12/29 15:18:43;;;;;;;4.97;1.63;;;;;;;10.33;100.00;99781.03;20781432;28;20567;-74
2022/12/29 15:28:44;;;;;;;6.57;1.95;;;;;;;10.00;100.00;99783.50;20776594;28;20103;-75
2022/12/29 15:38:45;;;;;;;6.68;1.88;;;;;;;9.74;100.00;99818.97;20776694;28;20079;-75
2022/12/29 15:48:47;;;;;;;5.15;1.70;;;;;;;9.59;100.00;99832.38;20775830;28;20056;-73
2022/12/29 15:58:48;;;;;;;10.40;3.58;;;;;;;9.52;100.00;99844.69;20776173;28;20115;-74
2022/12/29 16:08:49;;;;;;;6.18;2.88;;;;;;;9.51;100.00;99863.88;20774767;28;20502;-74
2022/12/29 16:18:51;;;;;;;4.82;1.48;;;;;;;9.49;100.00;99867.41;20774556;28;20080;-74
2022/12/29 16:28:58;;;;;;;6.97;2.50;;;;;;;9.48;100.00;99873.50;20773037;28;20140;-74
2022/12/29 16:38:59;;;;;;;10.40;3.60;;;;;;;9.45;100.00;99882.28;20758979;28;20049;-74
2022/12/29 16:49:00;;;;;;;8.23;2.55;;;;;;;9.51;100.00;99886.53;20774631;28;20103;-75
2022/12/29 16:59:02;;;;;;;7.43;3.10;;;;;;;9.51;100.00;99897.84;20779084;28;20057;-74
2022/12/29 17:09:03;;;;;;;6.82;2.80;;;;;;;9.44;100.00;99893.66;20789355;28;20058;-75
2022/12/29 17:19:04;;;;;;;5.10;2.58;;;;;;;9.41;100.00;99903.28;20799993;28;20053;-74
2022/12/29 17:29:05;;;;;;;6.97;2.30;;;;;;;9.34;100.00;99915.63;20793665;28;20049;-75
2022/12/29 17:39:07;;;;;;;9.48;2.20;;;;;;;9.35;100.00;99935.63;20778621;28;20104;-75
2022/12/29 17:49:08;;;;;;;8.85;2.10;;;;;;;9.36;100.00;99950.41;20777271;28;20058;-74
2022/12/29 17:59:09;;;;;;;6.97;2.92;;;;;;;9.31;100.00;99913.03;20776261;28;20107;-74
2022/12/29 18:09:10;;;;;;;10.82;4.07;;;;;;;9.20;100.00;99891.50;20774137;28;20045;-74
2022/12/29 18:19:12;;;;;;;15.90;7.72;;;;;;;9.18;100.00;99906.31;20778014;28;20626;-75
2022/12/29 18:29:13;;;;;;;18.45;8.38;;;;;;;9.08;100.00;99909.97;20773153;28;20050;-74
2022/12/29 18:39:14;;;;;;;8.40;3.30;;;;;;;8.92;100.00;99917.22;20773154;28;20061;-74
2022/12/29 18:49:15;;;;;;;9.90;3.33;;;;;;;8.88;100.00;99905.97;20772894;28;20115;-74
2022/12/29 18:59:17;;;;;;;11.38;4.80;;;;;;;8.92;100.00;99904.16;20769093;28;20061;-73
2022/12/29 19:09:18;;;;;;;13.25;4.80;;;;;;;8.90;100.00;99912.00;20769639;28;20046;-74
2022/12/29 19:19:19;;;;;;;10.57;4.32;;;;;;;8.84;100.00;99930.38;20772875;28;20108;-74
2022/12/29 19:29:21;;;;;;;11.15;3.08;;;;;;;8.73;100.00;99920.13;20768607;28;20482;-73
2022/12/29 19:39:22;;;;;;;12.32;3.60;;;;;;;8.74;100.00;99919.22;20769164;28;20053;-75
2022/12/29 19:49:23;;;;;;;13.57;3.85;;;;;;;8.77;100.00;99914.84;20768460;28;20662;-74
2022/12/29 19:59:25;;;;;;;8.35;2.83;;;;;;;8.69;100.00;99954.13;20767846;28;20394;-74
2022/12/29 20:09:26;;;;;;;6.32;2.17;;;;;;;8.68;100.00;99978.50;20766548;28;20290;-74
2022/12/29 20:19:29;;;;;;;5.38;1.80;;;;;;;8.64;100.00;99976.81;20771559;28;20053;-74
2022/12/29 20:29:31;;;;;;;5.72;1.80;;;;;;;8.62;100.00;99999.44;20773615;28;20045;-74
2022/12/29 20:39:32;;;;;;;9.98;2.13;;;;;;;8.62;100.00;99986.41;20778894;28;20124;-74
2022/12/29 20:49:36;;;;;;;5.32;1.67;;;;;;;8.54;100.00;100011.78;20781779;28;20065;-74
2022/12/29 20:59:38;;;;;;;8.40;2.63;;;;;;;8.51;100.00;99998.75;20781064;28;20057;-74
2022/12/29 21:09:39;;;;;;;6.30;2.30;;;;;;;8.57;100.00;100032.56;20779316;28;20541;-74
2022/12/29 21:19:40;;;;;;;6.85;1.77;;;;;;;8.53;100.00;100034.41;20782053;28;20064;-74
2022/12/29 21:29:41;;;;;;;7.35;2.10;;;;;;;8.52;100.00;100029.16;20776962;28;20053;-74
2022/12/29 21:39:43;;;;;;;5.53;1.75;;;;;;;8.50;100.00;100041.38;20775611;28;20045;-74
2022/12/29 21:49:44;;;;;;;6.45;1.35;;;;;;;8.45;100.00;100057.09;20779548;28;20088;-74
2022/12/29 22:20:25;;;;;;;8.10;1.58;;;;;;;8.34;100.00;100098.09;20774212;28;20045;-74
2022/12/29 22:30:26;;;;;;;6.72;2.00;;;;;;;8.37;100.00;100117.19;20772159;28;20045;-74
2022/12/29 22:40:28;;;;;;;5.18;1.55;;;;;;;8.54;100.00;100126.56;20772676;28;20084;-74
2022/12/29 22:50:29;;;;;;;8.32;1.55;;;;;;;8.44;100.00;100157.13;20771727;28;20548;-74
2022/12/29 23:00:30;;;;;;;6.65;1.83;;;;;;;8.43;100.00;100166.72;20770293;28;20050;-74
2022/12/29 23:10:32;;;;;;;6.65;1.40;;;;;;;8.38;100.00;100163.25;20776118;28;20049;-74
2022/12/29 23:20:33;;;;;;;5.70;1.70;;;;;;;8.31;100.00;100176.34;20780517;28;20119;-74
2022/12/29 23:30:34;;;;;;;5.47;1.33;;;;;;;8.22;100.00;100187.75;20774892;28;20095;-75
2022/12/29 23:40:35;;;;;;;6.82;1.10;;;;;;;8.16;100.00;100185.19;20776085;28;20053;-74
2022/12/29 23:50:37;;;;;;;5.88;1.48;;;;;;;8.01;100.00;100186.22;20776112;28;20126;-74
